Time;durP1;ratioP1;P1;durP2;ratioP2;P2;SDS_P1;SDS_P2;PMS_P1;PMS_P2;Temp;Humidity;BMP_temperature;BMP_pressure;BME280_temperature;BME280_humidity;BME280_pressure;Samples;Min_cycle;Max_cycle;Signal;HPM_P1;HPM_P2
2022/11/22 00:01:28;;;;;;;39.60;14.48;;;;;;;;;;6190648;23;20780;-92
2022/11/22 00:03:54;;;;;;;31.95;13.25;;;;;;;;;;6191108;23;20480;-91
2022/11/22 00:06:20;;;;;;;24.33;9.63;;;;;;;;;;6191601;23;20015;-91
2022/11/22 00:08:47;;;;;;;32.35;12.55;;;;;;;;;;6191070;23;20012;-92
2022/11/22 00:11:13;;;;;;;34.53;13.07;;;;;;;;;;6191552;23;20012;-91
2022/11/22 00:13:39;;;;;;;30.92;12.80;;;;;;;;;;6194568;23;20040;-92
2022/11/22 00:16:05;;;;;;;34.03;14.00;;;;;;;;;;6227752;23;20432;-92
2022/11/22 00:18:31;;;;;;;29.50;11.68;;;;;;;;;;6206029;23;20176;-93
2022/11/22 00:20:57;;;;;;;28.40;10.13;;;;;;;;;;6214068;23;20007;-93
2022/11/22 00:23:23;;;;;;;23.40;10.48;;;;;;;;;;6214193;23;20048;-93
2022/11/22 00:25:49;;;;;;;27.92;11.70;;;;;;;;;;6202851;23;20126;-93
2022/11/22 00:28:15;;;;;;;27.15;11.25;;;;;;;;;;6198460;23;20336;-92
2022/11/22 00:30:41;;;;;;;31.35;12.43;;;;;;;;;;6196834;23;20283;-92
2022/11/22 00:33:07;;;;;;;27.92;12.43;;;;;;;;;;6195635;23;19999;-95
2022/11/22 00:35:33;;;;;;;22.30;8.05;;;;;;;;;;6212386;23;20015;-94
2022/11/22 00:37:59;;;;;;;28.90;12.02;;;;;;;;;;6214438;22;20046;-94
2022/11/22 00:40:25;;;;;;;35.75;12.55;;;;;;;;;;6211803;23;20019;-94
2022/11/22 00:42:51;;;;;;;26.25;11.25;;;;;;;;;;6207394;23;20026;-92
2022/11/22 00:45:17;;;;;;;24.73;10.95;;;;;;;;;;6205425;23;20022;-92
2022/11/22 00:47:43;;;;;;;23.58;9.65;;;;;;;;;;6197808;23;20320;-93
2022/11/22 00:50:10;;;;;;;27.33;10.38;;;;;;;;;;6194714;23;20387;-92
2022/11/22 00:52:36;;;;;;;25.27;9.95;;;;;;;;;;6215901;22;20489;-93
2022/11/22 00:55:02;;;;;;;21.75;7.85;;;;;;;;;;6190348;23;20015;-94
2022/11/22 00:57:28;;;;;;;0.00;0.00;;;;;;;;;;6189924;23;20012;-93
2022/11/22 00:59:54;;;;;;;0.70;0.70;;;;;;;;;;6216512;23;20074;-93
2022/11/22 01:02:20;;;;;;;0.00;0.00;;;;;;;;;;6192157;23;20086;-92
2022/11/22 01:04:46;;;;;;;0.00;0.00;;;;;;;;;;6191128;23;20008;-93
2022/11/22 01:07:12;;;;;;;0.00;0.00;;;;;;;;;;6190292;23;20016;-93
2022/11/22 01:09:38;;;;;;;0.00;0.00;;;;;;;;;;6191122;23;20008;-94
2022/11/22 01:12:04;;;;;;;0.13;0.13;;;;;;;;;;6190115;23;20460;-93
2022/11/22 01:14:30;;;;;;;0.00;0.00;;;;;;;;;;6191181;23;20079;-93
2022/11/22 01:16:56;;;;;;;0.00;0.00;;;;;;;;;;6214654;23;20012;-93
2022/11/22 01:19:22;;;;;;;0.00;0.00;;;;;;;;;;6216757;23;20066;-92
2022/11/22 01:21:48;;;;;;;0.20;0.20;;;;;;;;;;6190794;23;20012;-93
2022/11/22 01:24:14;;;;;;;0.00;0.00;;;;;;;;;;6191672;23;20016;-94
2022/11/22 01:26:41;;;;;;;0.00;0.00;;;;;;;;;;6190151;23;20023;-93
2022/11/22 01:29:07;;;;;;;0.00;0.00;;;;;;;;;;6215662;23;20008;-91
2022/11/22 01:31:33;;;;;;;0.00;0.00;;;;;;;;;;6216149;23;20444;-92
2022/11/22 01:33:59;;;;;;;0.00;0.00;;;;;;;;;;6190510;23;20012;-91
2022/11/22 01:36:25;;;;;;;0.00;0.00;;;;;;;;;;6190219;23;20142;-91
2022/11/22 01:38:51;;;;;;;0.00;0.00;;;;;;;;;;6215941;23;20023;-92
2022/11/22 01:41:17;;;;;;;0.13;0.13;;;;;;;;;;6214750;23;20318;-93
2022/11/22 01:43:43;;;;;;;0.00;0.00;;;;;;;;;;6189527;23;20023;-91
2022/11/22 01:46:16;;;;;;;0.00;0.00;;;;;;;;;;6190133;23;20016;-92
2022/11/22 01:48:56;;;;;;;0.25;0.25;;;;;;;;;;6214879;23;20000;-92
2022/11/22 01:51:22;;;;;;;0.10;0.10;;;;;;;;;;6214928;23;20012;-92
2022/11/22 01:53:49;;;;;;;0.00;0.00;;;;;;;;;;6214639;22;20024;-92
2022/11/22 01:56:16;;;;;;;0.00;0.00;;;;;;;;;;6189519;23;20008;-92
2022/11/22 01:58:44;;;;;;;4.40;1.65;;;;;;;;;;6213698;23;20012;-91
2022/11/22 02:01:10;;;;;;;0.00;0.00;;;;;;;;;;6214639;23;20449;-94
2022/11/22 02:03:39;;;;;;;0.00;0.00;;;;;;;;;;6216115;23;20514;-94
2022/11/22 02:06:06;;;;;;;0.00;0.00;;;;;;;;;;6214191;23;20017;-95
2022/11/22 02:08:36;;;;;;;0.00;0.00;;;;;;;;;;6215261;23;20012;-95
2022/11/22 02:11:03;;;;;;;0.00;0.00;;;;;;;;;;6215530;23;20048;-94
2022/11/22 02:13:30;;;;;;;0.10;0.10;;;;;;;;;;6189678;23;20018;-93
2022/11/22 02:15:56;;;;;;;0.00;0.00;;;;;;;;;;6215136;23;20054;-93
2022/11/22 02:18:22;;;;;;;1.00;1.00;;;;;;;;;;6190338;23;20020;-93
2022/11/22 02:20:48;;;;;;;0.00;0.00;;;;;;;;;;6212106;23;20455;-94
2022/11/22 02:23:23;;;;;;;0.00;0.00;;;;;;;;;;6190105;23;20127;-95
2022/11/22 02:25:51;;;;;;;0.00;0.00;;;;;;;;;;6216479;23;20369;-94
2022/11/22 02:28:17;;;;;;;0.00;0.00;;;;;;;;;;6214190;23;20468;-96
2022/11/22 02:30:43;;;;;;;0.17;0.17;;;;;;;;;;6215427;23;20000;-93
2022/11/22 02:33:10;;;;;;;0.00;0.00;;;;;;;;;;6190773;23;20011;-94
2022/11/22 02:35:36;;;;;;;0.00;0.00;;;;;;;;;;6215533;23;20009;-95
2022/11/22 02:38:14;;;;;;;0.10;0.10;;;;;;;;;;6215877;23;20078;-94
2022/11/22 02:40:46;;;;;;;0.00;0.00;;;;;;;;;;6215209;23;20301;-95
2022/11/22 02:43:20;;;;;;;0.00;0.00;;;;;;;;;;6213775;23;20229;-95
2022/11/22 02:45:46;;;;;;;0.00;0.00;;;;;;;;;;6214247;23;20049;-96
2022/11/22 02:48:13;;;;;;;0.00;0.00;;;;;;;;;;6188299;23;20333;-95
2022/11/22 02:50:40;;;;;;;0.00;0.00;;;;;;;;;;6214815;23;20091;-94
2022/11/22 02:53:13;;;;;;;11.60;1.45;;;;;;;;;;6190845;22;20028;-96
2022/11/22 02:55:39;;;;;;;0.10;0.10;;;;;;;;;;6213724;23;20000;-96
2022/11/22 02:58:05;;;;;;;0.00;0.00;;;;;;;;;;6187472;23;20286;-96
2022/11/22 03:00:33;;;;;;;0.00;0.00;;;;;;;;;;6213600;23;20012;-95
2022/11/22 03:03:00;;;;;;;1.88;1.77;;;;;;;;;;6190572;23;20375;-96
2022/11/22 03:05:27;;;;;;;0.00;0.00;;;;;;;;;;6215337;23;20015;-95
2022/11/22 03:07:53;;;;;;;0.00;0.00;;;;;;;;;;6210088;23;20518;-95
2022/11/22 03:10:19;;;;;;;0.00;0.00;;;;;;;;;;6190070;23;20123;-95
2022/11/22 03:12:45;;;;;;;0.00;0.00;;;;;;;;;;6214643;23;20084;-96
2022/11/22 03:15:11;;;;;;;1.17;1.02;;;;;;;;;;6189517;23;20074;-96
2022/11/22 03:17:37;;;;;;;0.00;0.00;;;;;;;;;;6214500;23;20424;-96
2022/11/22 03:20:04;;;;;;;0.00;0.00;;;;;;;;;;6213824;23;20008;-94
2022/11/22 03:22:30;;;;;;;1.10;0.55;;;;;;;;;;6189856;23;20032;-94
2022/11/22 03:24:56;;;;;;;0.00;0.00;;;;;;;;;;6190598;23;20131;-95
2022/11/22 03:27:22;;;;;;;0.00;0.00;;;;;;;;;;6188561;23;20112;-95
2022/11/22 03:29:49;;;;;;;0.03;0.03;;;;;;;;;;6214940;23;20015;-95
2022/11/22 03:32:15;;;;;;;0.00;0.00;;;;;;;;;;6240753;23;20372;-94
2022/11/22 03:34:41;;;;;;;0.00;0.00;;;;;;;;;;6214494;23;20007;-94
2022/11/22 03:37:07;;;;;;;0.00;0.00;;;;;;;;;;6190962;23;20038;-96
2022/11/22 03:39:33;;;;;;;0.00;0.00;;;;;;;;;;6190297;23;20456;-95
2022/11/22 03:41:59;;;;;;;0.00;0.00;;;;;;;;;;6213849;23;20005;-95
2022/11/22 03:44:25;;;;;;;0.10;0.10;;;;;;;;;;6191475;23;20012;-96
2022/11/22 03:47:00;;;;;;;0.00;0.00;;;;;;;;;;6190581;23;20019;-95
2022/11/22 03:49:26;;;;;;;0.00;0.00;;;;;;;;;;6191823;23;20008;-95
2022/11/22 03:51:52;;;;;;;0.00;0.00;;;;;;;;;;6189491;23;20016;-95
2022/11/22 03:54:18;;;;;;;0.00;0.00;;;;;;;;;;6189291;23;20016;-96
2022/11/22 03:56:44;;;;;;;0.00;0.00;;;;;;;;;;6215280;23;20040;-95
2022/11/22 03:59:10;;;;;;;0.00;0.00;;;;;;;;;;6200158;23;20008;-94
2022/11/22 04:01:36;;;;;;;0.00;0.00;;;;;;;;;;6201651;23;20034;-94
2022/11/22 04:04:02;;;;;;;0.00;0.00;;;;;;;;;;6214813;23;20004;-92
2022/11/22 04:06:28;;;;;;;0.00;0.00;;;;;;;;;;6215712;22;20047;-94
2022/11/22 04:08:55;;;;;;;0.00;0.00;;;;;;;;;;6215566;23;20059;-95
2022/11/22 04:11:21;;;;;;;0.43;0.43;;;;;;;;;;6213380;23;20027;-94
2022/11/22 04:16:31;;;;;;;0.00;0.00;;;;;;;;;;6230256;23;20047;-95
2022/11/22 04:18:57;;;;;;;0.00;0.00;;;;;;;;;;6194441;23;20008;-95
2022/11/22 04:21:32;;;;;;;0.00;0.00;;;;;;;;;;6190785;23;20008;-95
2022/11/22 04:26:44;;;;;;;0.88;0.70;;;;;;;;;;6242087;23;20015;-94
2022/11/22 04:29:10;;;;;;;0.00;0.00;;;;;;;;;;6190354;23;20019;-94
2022/11/22 04:34:20;;;;;;;0.00;0.00;;;;;;;;;;6241878;23;20011;-95
2022/11/22 04:36:46;;;;;;;0.00;0.00;;;;;;;;;;6189930;23;20008;-95
2022/11/22 04:39:12;;;;;;;0.00;0.00;;;;;;;;;;6189659;23;20020;-94
2022/11/22 04:41:39;;;;;;;0.00;0.00;;;;;;;;;;6188516;23;20078;-95
2022/11/22 04:46:49;;;;;;;0.00;0.00;;;;;;;;;;6218156;23;20039;-94
2022/11/22 04:49:15;;;;;;;0.00;0.00;;;;;;;;;;6188605;23;20016;-94
2022/11/22 04:54:26;;;;;;;0.00;0.00;;;;;;;;;;6215551;22;20050;-95
2022/11/22 04:56:52;;;;;;;0.00;0.00;;;;;;;;;;6187648;23;20012;-95
2022/11/22 04:59:18;;;;;;;0.00;0.00;;;;;;;;;;6187572;23;20004;-95
2022/11/22 05:01:44;;;;;;;0.00;0.00;;;;;;;;;;6187147;23;20015;-93
2022/11/22 05:04:10;;;;;;;0.00;0.00;;;;;;;;;;6186804;23;20015;-94
2022/11/22 05:06:36;;;;;;;0.00;0.00;;;;;;;;;;6188055;23;20012;-94
2022/11/22 05:09:03;;;;;;;0.00;0.00;;;;;;;;;;6213301;23;20038;-95
2022/11/22 05:11:29;;;;;;;0.00;0.00;;;;;;;;;;6186381;23;20012;-94
2022/11/22 05:13:55;;;;;;;0.00;0.00;;;;;;;;;;6187352;23;20011;-95
2022/11/22 05:16:21;;;;;;;0.20;0.20;;;;;;;;;;6188587;23;20008;-95
2022/11/22 05:18:57;;;;;;;0.00;0.00;;;;;;;;;;6210614;23;20008;-94
2022/11/22 05:21:24;;;;;;;0.00;0.00;;;;;;;;;;6190222;23;20715;-94
2022/11/22 05:23:53;;;;;;;0.00;0.00;;;;;;;;;;6212010;23;20112;-94
2022/11/22 05:26:19;;;;;;;0.00;0.00;;;;;;;;;;6188439;23;20004;-95
2022/11/22 05:28:45;;;;;;;0.00;0.00;;;;;;;;;;6212941;23;20423;-95
2022/11/22 05:31:13;;;;;;;0.00;0.00;;;;;;;;;;6187057;23;20004;-94
2022/11/22 05:33:40;;;;;;;0.00;0.00;;;;;;;;;;6211916;23;20031;-94
2022/11/22 05:36:06;;;;;;;0.00;0.00;;;;;;;;;;6212294;23;20012;-94
2022/11/22 05:38:40;;;;;;;1.08;0.98;;;;;;;;;;6212767;23;20113;-94
2022/11/22 05:41:07;;;;;;;0.00;0.00;;;;;;;;;;6211925;23;20012;-93
2022/11/22 05:43:34;;;;;;;0.00;0.00;;;;;;;;;;6212291;23;20008;-94
2022/11/22 05:46:06;;;;;;;0.00;0.00;;;;;;;;;;6212248;23;20022;-94
2022/11/22 05:48:32;;;;;;;0.00;0.00;;;;;;;;;;6211821;23;20012;-94
2022/11/22 05:50:58;;;;;;;0.00;0.00;;;;;;;;;;6187335;23;20039;-93
2022/11/22 05:53:31;;;;;;;0.22;0.22;;;;;;;;;;6188681;22;20004;-94
2022/11/22 05:56:05;;;;;;;0.00;0.00;;;;;;;;;;6188080;23;20058;-94
2022/11/22 05:58:31;;;;;;;0.00;0.00;;;;;;;;;;6186793;23;20028;-94
2022/11/22 06:01:01;;;;;;;0.00;0.00;;;;;;;;;;6187628;23;20039;-93
2022/11/22 06:03:27;;;;;;;0.00;0.00;;;;;;;;;;6214050;23;20007;-94
2022/11/22 06:05:54;;;;;;;0.00;0.00;;;;;;;;;;6188317;23;20013;-94
2022/11/22 06:08:20;;;;;;;0.00;0.00;;;;;;;;;;6189014;23;20476;-94
2022/11/22 06:10:46;;;;;;;0.08;0.08;;;;;;;;;;6189226;23;20040;-94
2022/11/22 06:13:12;;;;;;;0.00;0.00;;;;;;;;;;6189283;23;20007;-95
2022/11/22 06:15:38;;;;;;;0.00;0.00;;;;;;;;;;6190070;23;20451;-94
2022/11/22 06:18:04;;;;;;;0.40;0.40;;;;;;;;;;6190820;23;20012;-95
2022/11/22 06:20:30;;;;;;;0.10;0.10;;;;;;;;;;6215874;23;20011;-94
2022/11/22 06:22:59;;;;;;;0.00;0.00;;;;;;;;;;6191305;23;20071;-94
2022/11/22 06:25:26;;;;;;;0.03;0.03;;;;;;;;;;6216075;23;20015;-94
2022/11/22 06:27:52;;;;;;;0.35;0.35;;;;;;;;;;6189180;23;20008;-94
2022/11/22 06:30:18;;;;;;;0.00;0.00;;;;;;;;;;6190432;23;20090;-94
2022/11/22 06:32:44;;;;;;;0.00;0.00;;;;;;;;;;6215465;23;20004;-94
2022/11/22 06:35:10;;;;;;;0.00;0.00;;;;;;;;;;6190665;23;20035;-93
2022/11/22 06:37:36;;;;;;;0.00;0.00;;;;;;;;;;6190574;23;20046;-94
2022/11/22 06:40:02;;;;;;;0.00;0.00;;;;;;;;;;6191023;23;20008;-94
2022/11/22 06:42:28;;;;;;;0.00;0.00;;;;;;;;;;6190657;23;20012;-94
2022/11/22 06:44:54;;;;;;;0.00;0.00;;;;;;;;;;6189857;23;20017;-94
2022/11/22 06:47:20;;;;;;;0.00;0.00;;;;;;;;;;6190372;23;20012;-93
2022/11/22 06:49:46;;;;;;;0.00;0.00;;;;;;;;;;6191515;23;20451;-95
2022/11/22 06:52:12;;;;;;;0.00;0.00;;;;;;;;;;6214854;23;20004;-94
2022/11/22 06:54:45;;;;;;;0.00;0.00;;;;;;;;;;6190180;22;20024;-94
2022/11/22 06:57:14;;;;;;;0.00;0.00;;;;;;;;;;6190945;23;20484;-94
2022/11/22 06:59:40;;;;;;;0.00;0.00;;;;;;;;;;6191017;23;20008;-94
2022/11/22 07:02:10;;;;;;;0.17;0.17;;;;;;;;;;6189472;23;20027;-95
2022/11/22 07:04:36;;;;;;;0.00;0.00;;;;;;;;;;6217086;23;20028;-95
2022/11/22 07:07:02;;;;;;;0.00;0.00;;;;;;;;;;6189167;23;20012;-95
2022/11/22 07:09:28;;;;;;;0.00;0.00;;;;;;;;;;6191080;23;20015;-94
2022/11/22 07:11:54;;;;;;;0.00;0.00;;;;;;;;;;6215528;23;20004;-95
2022/11/22 07:14:20;;;;;;;0.00;0.00;;;;;;;;;;6191414;23;20012;-94
2022/11/22 07:16:46;;;;;;;0.00;0.00;;;;;;;;;;6191658;23;20012;-94
2022/11/22 07:19:12;;;;;;;0.00;0.00;;;;;;;;;;6192807;23;20016;-94
2022/11/22 07:21:39;;;;;;;0.00;0.00;;;;;;;;;;6191181;23;20008;-95
2022/11/22 07:24:05;;;;;;;0.00;0.00;;;;;;;;;;6192707;23;20028;-95
2022/11/22 07:26:31;;;;;;;0.00;0.00;;;;;;;;;;6226480;23;20008;-93
2022/11/22 07:28:57;;;;;;;0.00;0.00;;;;;;;;;;6228189;23;20015;-94
2022/11/22 07:31:24;;;;;;;0.00;0.00;;;;;;;;;;6215869;23;19996;-93
2022/11/22 07:33:50;;;;;;;0.00;0.00;;;;;;;;;;6218027;23;20019;-93
2022/11/22 07:36:21;;;;;;;0.00;0.00;;;;;;;;;;6214063;23;20012;-91
2022/11/22 07:38:47;;;;;;;0.00;0.00;;;;;;;;;;6235193;23;19993;-93
2022/11/22 07:41:14;;;;;;;0.00;0.00;;;;;;;;;;6206050;23;20012;-93
2022/11/22 07:43:40;;;;;;;0.00;0.00;;;;;;;;;;6227867;23;20004;-95
2022/11/22 07:46:10;;;;;;;0.00;0.00;;;;;;;;;;6220163;23;20439;-94
2022/11/22 07:48:36;;;;;;;0.00;0.00;;;;;;;;;;6216806;23;20033;-94
2022/11/22 07:51:06;;;;;;;0.00;0.00;;;;;;;;;;6191354;23;20004;-94
2022/11/22 07:53:33;;;;;;;0.03;0.03;;;;;;;;;;6215379;23;20439;-94
2022/11/22 07:56:05;;;;;;;0.00;0.00;;;;;;;;;;6214615;22;20072;-94
2022/11/22 07:58:32;;;;;;;0.00;0.00;;;;;;;;;;6213089;23;20043;-94
2022/11/22 08:00:58;;;;;;;0.00;0.00;;;;;;;;;;6213061;23;20087;-94
2022/11/22 08:03:24;;;;;;;1.08;0.70;;;;;;;;;;6210241;23;20034;-94
2022/11/22 08:05:50;;;;;;;0.00;0.00;;;;;;;;;;6213224;23;20008;-94
2022/11/22 08:08:16;;;;;;;0.00;0.00;;;;;;;;;;6186221;23;20008;-94
2022/11/22 08:10:44;;;;;;;0.00;0.00;;;;;;;;;;6187984;23;20015;-93
2022/11/22 08:13:10;;;;;;;0.00;0.00;;;;;;;;;;6210069;23;20000;-94
2022/11/22 08:15:36;;;;;;;0.28;0.28;;;;;;;;;;6186138;23;20020;-96
2022/11/22 08:18:02;;;;;;;0.00;0.00;;;;;;;;;;6188051;23;20012;-94
2022/11/22 08:20:28;;;;;;;0.00;0.00;;;;;;;;;;6188850;23;20087;-94
2022/11/22 08:22:54;;;;;;;0.00;0.00;;;;;;;;;;6188335;23;20039;-94
2022/11/22 08:25:20;;;;;;;0.00;0.00;;;;;;;;;;6188168;23;20012;-94
2022/11/22 08:27:46;;;;;;;0.00;0.00;;;;;;;;;;6186322;23;20023;-94
2022/11/22 08:30:12;;;;;;;0.00;0.00;;;;;;;;;;6188678;23;20051;-94
2022/11/22 08:32:38;;;;;;;0.00;0.00;;;;;;;;;;6186978;23;20032;-95
2022/11/22 08:35:04;;;;;;;0.00;0.00;;;;;;;;;;6215583;23;20516;-93
2022/11/22 08:37:30;;;;;;;0.10;0.10;;;;;;;;;;6189305;23;20057;-94
2022/11/22 08:39:56;;;;;;;0.00;0.00;;;;;;;;;;6187559;23;20504;-93
2022/11/22 08:42:23;;;;;;;0.10;0.10;;;;;;;;;;6187681;23;20019;-94
2022/11/22 08:44:49;;;;;;;0.00;0.00;;;;;;;;;;6187014;23;20045;-92
2022/11/22 08:47:15;;;;;;;0.32;0.32;;;;;;;;;;6188292;23;20019;-94
2022/11/22 08:49:41;;;;;;;0.00;0.00;;;;;;;;;;6187189;23;20008;-94
2022/11/22 08:52:07;;;;;;;0.00;0.00;;;;;;;;;;6187083;23;20019;-92
2022/11/22 08:54:33;;;;;;;0.00;0.00;;;;;;;;;;6213476;22;20012;-93
2022/11/22 08:56:59;;;;;;;0.00;0.00;;;;;;;;;;6186735;23;20026;-94
2022/11/22 08:59:25;;;;;;;0.00;0.00;;;;;;;;;;6188568;23;20023;-94
2022/11/22 09:01:51;;;;;;;0.20;0.20;;;;;;;;;;6187074;23;20098;-94
2022/11/22 09:04:17;;;;;;;1.00;0.98;;;;;;;;;;6187469;23;20019;-94
2022/11/22 09:06:43;;;;;;;0.00;0.00;;;;;;;;;;6189035;23;20016;-94
2022/11/22 09:09:09;;;;;;;0.00;0.00;;;;;;;;;;6185938;23;20012;-93
2022/11/22 09:11:35;;;;;;;0.00;0.00;;;;;;;;;;6187117;23;20034;-93
2022/11/22 09:14:01;;;;;;;0.00;0.00;;;;;;;;;;6210179;23;20038;-94
2022/11/22 09:16:27;;;;;;;0.00;0.00;;;;;;;;;;6185667;23;20050;-94
2022/11/22 09:18:54;;;;;;;0.10;0.10;;;;;;;;;;6188207;23;20099;-93
2022/11/22 09:21:20;;;;;;;0.00;0.00;;;;;;;;;;6188137;23;20019;-95
2022/11/22 09:23:48;;;;;;;1.48;0.57;;;;;;;;;;6214642;23;20011;-96
2022/11/22 09:26:15;;;;;;;0.00;0.00;;;;;;;;;;6213665;23;20008;-94
2022/11/22 09:28:41;;;;;;;0.03;0.03;;;;;;;;;;6213141;23;20420;-94
2022/11/22 09:31:09;;;;;;;0.00;0.00;;;;;;;;;;6188772;23;20443;-95
2022/11/22 09:33:35;;;;;;;0.00;0.00;;;;;;;;;;6213791;23;20019;-95
2022/11/22 09:36:03;;;;;;;0.00;0.00;;;;;;;;;;6214265;23;20004;-94
2022/11/22 09:38:29;;;;;;;0.00;0.00;;;;;;;;;;6213889;23;20008;-94
2022/11/22 09:40:56;;;;;;;0.00;0.00;;;;;;;;;;6214596;23;20083;-94
2022/11/22 09:43:42;;;;;;;0.00;0.00;;;;;;;;;;6211868;23;20012;-94
2022/11/22 09:46:11;;;;;;;0.00;0.00;;;;;;;;;;6238584;23;20008;-93
2022/11/22 09:48:46;;;;;;;0.85;0.85;;;;;;;;;;6213617;23;20455;-94
2022/11/22 09:51:14;;;;;;;1.27;1.17;;;;;;;;;;6213680;23;20004;-93
2022/11/22 09:53:53;;;;;;;0.00;0.00;;;;;;;;;;6213542;23;20019;-94
2022/11/22 09:56:21;;;;;;;0.00;0.00;;;;;;;;;;6214978;22;20016;-94
2022/11/22 09:58:51;;;;;;;0.00;0.00;;;;;;;;;;6213343;23;20022;-94
2022/11/22 10:01:20;;;;;;;0.00;0.00;;;;;;;;;;6214766;23;20012;-94
2022/11/22 10:03:48;;;;;;;0.00;0.00;;;;;;;;;;6212929;23;20488;-94
2022/11/22 10:06:23;;;;;;;0.00;0.00;;;;;;;;;;6214211;23;20384;-94
2022/11/22 10:08:55;;;;;;;0.00;0.00;;;;;;;;;;6213135;23;20016;-94
2022/11/22 10:11:35;;;;;;;0.00;0.00;;;;;;;;;;6212949;23;20004;-94
2022/11/22 10:14:09;;;;;;;0.00;0.00;;;;;;;;;;6212348;23;20039;-94
2022/11/22 10:16:40;;;;;;;0.00;0.00;;;;;;;;;;6213315;23;20008;-94
2022/11/22 10:19:33;;;;;;;0.00;0.00;;;;;;;;;;6214212;23;20008;-95
2022/11/22 10:21:59;;;;;;;0.00;0.00;;;;;;;;;;6207127;23;20440;-92
2022/11/22 10:24:25;;;;;;;0.00;0.00;;;;;;;;;;6188180;23;20470;-93
2022/11/22 10:26:53;;;;;;;0.00;0.00;;;;;;;;;;6188682;23;20159;-96
2022/11/22 10:29:22;;;;;;;0.00;0.00;;;;;;;;;;6212933;23;20012;-94
2022/11/22 10:32:00;;;;;;;0.00;0.00;;;;;;;;;;6212710;23;20011;-94
2022/11/22 10:34:26;;;;;;;0.00;0.00;;;;;;;;;;6213709;23;20000;-94
2022/11/22 10:37:10;;;;;;;0.00;0.00;;;;;;;;;;6214128;23;20076;-93
2022/11/22 10:39:49;;;;;;;3.05;2.33;;;;;;;;;;6241529;23;20595;-94
2022/11/22 10:42:35;;;;;;;0.00;0.00;;;;;;;;;;6212354;23;20016;-95
2022/11/22 10:45:09;;;;;;;0.00;0.00;;;;;;;;;;6193088;23;20515;-93
2022/11/22 10:47:39;;;;;;;0.00;0.00;;;;;;;;;;6214382;23;20008;-94
2022/11/22 10:50:05;;;;;;;0.20;0.20;;;;;;;;;;6213857;23;20027;-92
2022/11/22 10:52:42;;;;;;;0.40;0.40;;;;;;;;;;6214653;23;20008;-94
2022/11/22 10:55:26;;;;;;;14.32;3.83;;;;;;;;;;6214271;22;20016;-93
2022/11/22 10:57:58;;;;;;;9.80;2.40;;;;;;;;;;6215793;23;20004;-94
2022/11/22 11:00:25;;;;;;;9.18;2.53;;;;;;;;;;6216986;23;20016;-92
2022/11/22 11:02:51;;;;;;;7.05;3.03;;;;;;;;;;6218742;23;20009;-93
2022/11/22 11:05:19;;;;;;;9.38;2.00;;;;;;;;;;6216025;23;20072;-93
2022/11/22 11:07:49;;;;;;;4.57;1.20;;;;;;;;;;6243673;23;20421;-92
2022/11/22 11:10:22;;;;;;;4.50;1.73;;;;;;;;;;6214538;23;20216;-93
2022/11/22 11:12:58;;;;;;;5.40;1.70;;;;;;;;;;6214730;23;20416;-94
2022/11/22 11:15:31;;;;;;;6.97;2.70;;;;;;;;;;6214240;23;20012;-92
2022/11/22 11:18:01;;;;;;;1.88;1.20;;;;;;;;;;6241231;23;20008;-93
2022/11/22 11:20:38;;;;;;;12.38;3.88;;;;;;;;;;6215373;23;20020;-93
2022/11/22 11:23:04;;;;;;;5.57;1.60;;;;;;;;;;6214379;23;20008;-94
2022/11/22 11:25:33;;;;;;;6.15;1.33;;;;;;;;;;6192148;23;20012;-95
2022/11/22 11:28:01;;;;;;;4.68;1.95;;;;;;;;;;6214866;23;20004;-94
2022/11/22 11:30:28;;;;;;;4.85;1.50;;;;;;;;;;6215325;23;20032;-93
2022/11/22 11:32:55;;;;;;;3.08;1.70;;;;;;;;;;6216189;23;20033;-93
2022/11/22 11:35:22;;;;;;;7.03;2.17;;;;;;;;;;6214514;23;20004;-93
2022/11/22 11:37:48;;;;;;;5.90;2.28;;;;;;;;;;6215513;23;20523;-94
2022/11/22 11:40:30;;;;;;;6.43;2.00;;;;;;;;;;6189361;23;20012;-94
2022/11/22 11:43:18;;;;;;;9.90;1.98;;;;;;;;;;6214234;23;20036;-94
2022/11/22 11:45:44;;;;;;;13.32;2.20;;;;;;;;;;6215412;23;20016;-94
2022/11/22 11:48:27;;;;;;;15.75;1.70;;;;;;;;;;6189709;23;20008;-93
2022/11/22 11:51:06;;;;;;;11.52;1.70;;;;;;;;;;6215481;23;20015;-94
2022/11/22 11:53:32;;;;;;;16.67;3.05;;;;;;;;;;6214262;23;20019;-93
2022/11/22 11:56:17;;;;;;;4.35;1.95;;;;;;;;;;6189080;22;20074;-93
2022/11/22 11:58:49;;;;;;;10.73;2.35;;;;;;;;;;6213391;23;20383;-94
2022/11/22 12:01:18;;;;;;;8.40;2.20;;;;;;;;;;6215105;23;20012;-92
2022/11/22 12:03:50;;;;;;;3.67;2.33;;;;;;;;;;6214198;23;20447;-94
2022/11/22 12:06:16;;;;;;;9.23;1.80;;;;;;;;;;6214667;23;20054;-93
2022/11/22 12:08:43;;;;;;;6.10;2.03;;;;;;;;;;6189086;23;20046;-94
2022/11/22 12:11:11;;;;;;;108.80;4.68;;;;;;;;;;6213766;23;20008;-91
2022/11/22 12:13:43;;;;;;;3.78;1.60;;;;;;;;;;6213884;23;20004;-93
2022/11/22 12:16:18;;;;;;;5.78;1.67;;;;;;;;;;6214704;23;20004;-94
2022/11/22 12:18:50;;;;;;;10.03;1.93;;;;;;;;;;6213079;23;20008;-94
2022/11/22 12:21:32;;;;;;;2.45;1.27;;;;;;;;;;6214174;23;20007;-94
2022/11/22 12:23:58;;;;;;;6.70;0.98;;;;;;;;;;6212946;23;20455;-94
2022/11/22 12:26:26;;;;;;;11.05;2.63;;;;;;;;;;6213387;23;20012;-93
2022/11/22 12:28:52;;;;;;;7.82;1.60;;;;;;;;;;6241711;23;20372;-95
2022/11/22 12:31:21;;;;;;;5.00;1.98;;;;;;;;;;6189453;23;20005;-94
2022/11/22 12:33:51;;;;;;;7.93;1.98;;;;;;;;;;6213526;23;20061;-94
2022/11/22 12:36:24;;;;;;;10.93;1.70;;;;;;;;;;6213547;23;20004;-93
2022/11/22 12:38:51;;;;;;;4.88;1.45;;;;;;;;;;6213884;23;20011;-94
2022/11/22 12:41:19;;;;;;;5.88;1.25;;;;;;;;;;6188234;23;20016;-94
2022/11/22 12:43:57;;;;;;;9.73;2.35;;;;;;;;;;6213760;23;20331;-93
2022/11/22 12:46:33;;;;;;;10.43;1.98;;;;;;;;;;6213230;23;20379;-94
2022/11/22 12:49:02;;;;;;;5.72;1.63;;;;;;;;;;6239989;23;20425;-95
2022/11/22 12:51:28;;;;;;;10.52;1.70;;;;;;;;;;6214595;23;20031;-95
2022/11/22 12:53:57;;;;;;;4.40;1.60;;;;;;;;;;6211445;23;20266;-95
2022/11/22 12:56:26;;;;;;;8.77;1.50;;;;;;;;;;6214237;22;20709;-94
2022/11/22 12:59:07;;;;;;;10.32;2.33;;;;;;;;;;6213562;23;20012;-94
2022/11/22 13:01:36;;;;;;;5.15;1.33;;;;;;;;;;6213856;23;20464;-94
2022/11/22 13:04:08;;;;;;;6.40;1.70;;;;;;;;;;6213579;23;20004;-95
2022/11/22 13:06:55;;;;;;;11.30;1.85;;;;;;;;;;6213208;23;20008;-92
2022/11/22 13:09:27;;;;;;;8.95;2.00;;;;;;;;;;6213907;23;20099;-93
2022/11/22 13:11:59;;;;;;;8.43;1.90;;;;;;;;;;6212879;23;20043;-94
2022/11/22 13:14:53;;;;;;;11.38;2.08;;;;;;;;;;6213686;23;20004;-93
2022/11/22 13:17:20;;;;;;;7.53;2.22;;;;;;;;;;6235671;23;20464;-95
2022/11/22 13:19:49;;;;;;;4.97;1.70;;;;;;;;;;6214192;23;20004;-94
2022/11/22 13:22:22;;;;;;;8.52;1.80;;;;;;;;;;6213589;23;20012;-94
2022/11/22 13:24:51;;;;;;;6.72;2.55;;;;;;;;;;6213100;23;20004;-95
2022/11/22 13:27:24;;;;;;;8.45;1.13;;;;;;;;;;6213180;23;20432;-93
2022/11/22 13:29:52;;;;;;;10.52;1.52;;;;;;;;;;6214291;23;20062;-93
2022/11/22 13:32:22;;;;;;;5.00;1.48;;;;;;;;;;6213261;23;20005;-95
2022/11/22 13:35:07;;;;;;;6.50;2.17;;;;;;;;;;6214524;23;20104;-94
2022/11/22 13:37:46;;;;;;;10.70;2.03;;;;;;;;;;6214127;23;20077;-95
2022/11/22 13:40:15;;;;;;;10.95;1.40;;;;;;;;;;6213404;23;20004;-93
2022/11/22 13:42:42;;;;;;;4.93;0.88;;;;;;;;;;6213770;23;20038;-93
2022/11/22 13:45:08;;;;;;;6.82;1.70;;;;;;;;;;6212605;23;20011;-94
2022/11/22 13:47:38;;;;;;;6.60;1.58;;;;;;;;;;6214485;23;20008;-93
2022/11/22 13:50:43;;;;;;;9.02;1.50;;;;;;;;;;6215086;23;20494;-95
2022/11/22 13:53:18;;;;;;;4.20;1.23;;;;;;;;;;6089344;23;20046;-94
2022/11/22 13:55:45;;;;;;;8.48;2.00;;;;;;;;;;6088804;23;20022;-93
2022/11/22 13:58:23;;;;;;;8.27;1.50;;;;;;;;;;6141635;23;20005;-93
2022/11/22 14:00:58;;;;;;;15.43;1.75;;;;;;;;;;6182695;23;20385;-94
2022/11/22 14:03:43;;;;;;;4.07;1.53;;;;;;;;;;6183574;23;20012;-95
2022/11/22 14:06:23;;;;;;;5.30;1.45;;;;;;;;;;6184174;23;20258;-94
2022/11/22 14:09:09;;;;;;;8.30;1.60;;;;;;;;;;6182428;23;20399;-95
2022/11/22 14:11:40;;;;;;;2.97;1.33;;;;;;;;;;6183766;23;19996;-94
2022/11/22 14:14:14;;;;;;;7.97;1.25;;;;;;;;;;6183124;23;20004;-94
2022/11/22 14:17:00;;;;;;;5.97;1.67;;;;;;;;;;6184203;23;20304;-94
2022/11/22 14:19:35;;;;;;;1.60;0.90;;;;;;;;;;6183742;23;20421;-94
2022/11/22 14:22:10;;;;;;;9.40;1.30;;;;;;;;;;6184117;23;20016;-94
2022/11/22 14:24:48;;;;;;;7.90;1.73;;;;;;;;;;6184932;23;20012;-94
2022/11/22 14:27:25;;;;;;;7.13;2.75;;;;;;;;;;6185337;23;20012;-94
2022/11/22 14:30:00;;;;;;;11.02;1.80;;;;;;;;;;6184916;23;20464;-93
2022/11/22 14:32:38;;;;;;;10.18;2.38;;;;;;;;;;6185367;23;20001;-93
2022/11/22 14:35:04;;;;;;;4.93;1.70;;;;;;;;;;6186683;23;20001;-94
2022/11/22 14:37:31;;;;;;;6.10;1.48;;;;;;;;;;6188580;23;20437;-93
2022/11/22 14:40:06;;;;;;;4.70;1.60;;;;;;;;;;6188172;23;20062;-93
2022/11/22 14:42:45;;;;;;;9.13;2.17;;;;;;;;;;6187775;23;20345;-92
2022/11/22 14:45:11;;;;;;;3.55;1.52;;;;;;;;;;6186551;23;20349;-93
2022/11/22 14:47:40;;;;;;;6.85;1.90;;;;;;;;;;6186768;23;20012;-94
2022/11/22 14:50:22;;;;;;;8.63;1.75;;;;;;;;;;6183971;23;20091;-90
2022/11/22 14:52:48;;;;;;;8.07;1.70;;;;;;;;;;6183145;23;20337;-90
2022/11/22 14:55:16;;;;;;;8.05;1.90;;;;;;;;;;6185339;22;20009;-93
2022/11/22 14:57:43;;;;;;;5.45;2.55;;;;;;;;;;6184513;23;20023;-90
2022/11/22 15:00:09;;;;;;;8.35;1.88;;;;;;;;;;6184284;23;20019;-91
2022/11/22 15:02:38;;;;;;;4.20;1.35;;;;;;;;;;6181154;23;20333;-90
2022/11/22 15:05:04;;;;;;;2.60;1.20;;;;;;;;;;6181796;23;20008;-91